Airfield :
LOGIN :

Register | Disclaimer

   EN    FR    IT 

 










Legend :    VFR   Marginal VFR   IFR   Intensive IFR   Very Intensive IFR
Visi :
Ceiling :
>= 8 km
>= 3000ft
5 to 8 km
1000 to 3000 ft
1500m to 5 km
500 to 1000 ft
800 to 1500m
200 to 500 ft
< 800m
< 200 ft
Symbols :   Thunderstorms  Fog  Heavy snow  Heavy precipitations  Wind > 20 kt
SIGMETs :     Misc.  Thunderstorms  Icing  Turbulence  Mountain Waves  Volcanic Ashes







- Airport Elevation : 1306 ft
- IATA code : ACH


LSZR - Alten Rhein

CURRENT METAR :
  • 200450Z VRB02KT CAVOK 16/14 Q1015 NOSIG RMK A

EXPIRED METARs :
  • 200420Z VRB02KT CAVOK 16/14 Q1015 NOSIG RMK A
  • 200350Z AUTO VRB02KT 9999 NSC 16/13 Q1015
  • 200320Z AUTO VRB01KT CAVOK 16/13 Q1015
  • 200250Z AUTO 12001KT CAVOK 16/13 Q1015
  • 200220Z AUTO 13001KT 9999 NCD 16/13 Q1015

TAF TAF LSZR
Valid from the 20 at 03:00 until the 20 at 12:00 UTC


200225Z 2003/2012 VRB03KT CAVOK
BECMG 2009/2012 9999 FEW055
ATIS : +41 71 858 51 66
No reported NOTAMs for that airfield.



MET'MAP, your aeronautical weather chart ! - Copyright ORBIFLY December 2007 - Disclaimer

ORBIFLY MET'MAP TEAM :

Programming & Development : Alexandra Zaïnal
Concept & Development : Baudouin d'Aumeries
Co-Development & Prog : Marc-Olivier Méhu
Technical & hardware support : Manuel Goepfert

Contact : metmap@orbifly.com




SOURCES & CREDITS :

   NOAA